sensor_id;sensor_type;location;lat;lon;timestamp;temperature;humidity
11005;DHT22;5555;59.622;16.556;2022-09-09T00:00:19;9.70;99.90
11005;DHT22;5555;59.622;16.556;2022-09-09T00:03:12;9.70;99.90
11005;DHT22;5555;59.622;16.556;2022-09-09T00:05:42;9.80;99.90
11005;DHT22;5555;59.622;16.556;2022-09-09T00:08:18;9.80;99.90
11005;DHT22;5555;59.622;16.556;2022-09-09T00:10:48;9.90;99.90
11005;DHT22;5555;59.622;16.556;2022-09-09T00:13:52;10.00;99.90
11005;DHT22;5555;59.622;16.556;2022-09-09T00:16:27;10.10;99.90
11005;DHT22;5555;59.622;16.556;2022-09-09T00:19:07;10.10;99.90
11005;DHT22;5555;59.622;16.556;2022-09-09T00:21:42;10.20;99.90
11005;DHT22;5555;59.622;16.556;2022-09-09T00:24:28;10.20;99.90
11005;DHT22;5555;59.622;16.556;2022-09-09T00:30:24;10.30;99.90
11005;DHT22;5555;59.622;16.556;2022-09-09T00:33:00;10.30;99.90
11005;DHT22;5555;59.622;16.556;2022-09-09T00:35:40;10.30;99.90
11005;DHT22;5555;59.622;16.556;2022-09-09T00:38:26;10.30;99.90
11005;DHT22;5555;59.622;16.556;2022-09-09T00:43:55;10.40;99.90
11005;DHT22;5555;59.622;16.556;2022-09-09T00:49:21;10.40;99.90
11005;DHT22;5555;59.622;16.556;2022-09-09T00:58:10;10.30;99.90
11005;DHT22;5555;59.622;16.556;2022-09-09T01:00:46;10.30;99.90
11005;DHT22;5555;59.622;16.556;2022-09-09T01:03:36;10.20;99.90
11005;DHT22;5555;59.622;16.556;2022-09-09T01:11:24;10.00;99.90
11005;DHT22;5555;59.622;16.556;2022-09-09T01:13:59;10.00;99.90
11005;DHT22;5555;59.622;16.556;2022-09-09T01:16:26;10.00;99.90
11005;DHT22;5555;59.622;16.556;2022-09-09T01:18:54;10.00;99.90
11005;DHT22;5555;59.622;16.556;2022-09-09T01:22:18;10.10;99.90
11005;DHT22;5555;59.622;16.556;2022-09-09T01:25:07;10.10;99.90
11005;DHT22;5555;59.622;16.556;2022-09-09T01:27:35;10.10;99.90
11005;DHT22;5555;59.622;16.556;2022-09-09T01:30:04;10.20;99.90
11005;DHT22;5555;59.622;16.556;2022-09-09T01:35:13;10.30;99.90
11005;DHT22;5555;59.622;16.556;2022-09-09T01:37:40;10.30;99.90
11005;DHT22;5555;59.622;16.556;2022-09-09T01:40:07;10.30;99.90
11005;DHT22;5555;59.622;16.556;2022-09-09T01:42:33;10.40;99.90
11005;DHT22;5555;59.622;16.556;2022-09-09T01:44:59;10.30;99.90
11005;DHT22;5555;59.622;16.556;2022-09-09T01:47:25;10.30;99.90
11005;DHT22;5555;59.622;16.556;2022-09-09T01:49:50;10.40;99.90
11005;DHT22;5555;59.622;16.556;2022-09-09T01:52:16;10.40;99.90
11005;DHT22;5555;59.622;16.556;2022-09-09T01:54:42;10.50;99.90
11005;DHT22;5555;59.622;16.556;2022-09-09T02:00:13;10.40;99.90
11005;DHT22;5555;59.622;16.556;2022-09-09T02:05:44;10.40;99.90
11005;DHT22;5555;59.622;16.556;2022-09-09T02:08:18;10.40;99.90
11005;DHT22;5555;59.622;16.556;2022-09-09T02:11:18;10.40;99.90
11005;DHT22;5555;59.622;16.556;2022-09-09T02:13:49;10.40;99.90
11005;DHT22;5555;59.622;16.556;2022-09-09T02:21:40;10.50;99.90
11005;DHT22;5555;59.622;16.556;2022-09-09T02:24:08;10.50;99.90
11005;DHT22;5555;59.622;16.556;2022-09-09T02:26:40;10.50;99.90
11005;DHT22;5555;59.622;16.556;2022-09-09T02:29:19;10.50;99.90
11005;DHT22;5555;59.622;16.556;2022-09-09T02:31:47;10.50;99.90
11005;DHT22;5555;59.622;16.556;2022-09-09T02:34:17;10.50;99.90
11005;DHT22;5555;59.622;16.556;2022-09-09T02:36:45;10.50;99.90
11005;DHT22;5555;59.622;16.556;2022-09-09T02:39:12;10.40;99.90
11005;DHT22;5555;59.622;16.556;2022-09-09T02:41:40;10.40;99.90
11005;DHT22;5555;59.622;16.556;2022-09-09T02:44:24;10.50;99.90
11005;DHT22;5555;59.622;16.556;2022-09-09T02:50:13;10.50;99.90
11005;DHT22;5555;59.622;16.556;2022-09-09T02:55:46;10.50;99.90
11005;DHT22;5555;59.622;16.556;2022-09-09T02:58:15;10.50;99.90
11005;DHT22;5555;59.622;16.556;2022-09-09T03:00:47;10.50;99.90
11005;DHT22;5555;59.622;16.556;2022-09-09T03:03:13;10.50;99.90
11005;DHT22;5555;59.622;16.556;2022-09-09T03:05:39;10.50;99.90
11005;DHT22;5555;59.622;16.556;2022-09-09T03:08:05;10.50;99.90
11005;DHT22;5555;59.622;16.556;2022-09-09T03:10:32;10.50;99.90
11005;DHT22;5555;59.622;16.556;2022-09-09T03:12:58;10.50;99.90
11005;DHT22;5555;59.622;16.556;2022-09-09T03:15:24;10.40;99.90
11005;DHT22;5555;59.622;16.556;2022-09-09T03:17:49;10.40;99.90
11005;DHT22;5555;59.622;16.556;2022-09-09T03:20:16;10.40;99.90
11005;DHT22;5555;59.622;16.556;2022-09-09T03:22:42;10.50;99.90
11005;DHT22;5555;59.622;16.556;2022-09-09T03:25:09;10.40;99.90
11005;DHT22;5555;59.622;16.556;2022-09-09T03:27:34;10.40;99.90
11005;DHT22;5555;59.622;16.556;2022-09-09T03:30:00;10.40;99.90
11005;DHT22;5555;59.622;16.556;2022-09-09T03:32:29;10.40;99.90
11005;DHT22;5555;59.622;16.556;2022-09-09T03:34:54;10.40;99.90
11005;DHT22;5555;59.622;16.556;2022-09-09T03:37:20;10.40;99.90
11005;DHT22;5555;59.622;16.556;2022-09-09T03:39:46;10.40;99.90
11005;DHT22;5555;59.622;16.556;2022-09-09T03:42:15;10.40;99.90
11005;DHT22;5555;59.622;16.556;2022-09-09T03:44:44;10.40;99.90
11005;DHT22;5555;59.622;16.556;2022-09-09T03:47:12;10.40;99.90
11005;DHT22;5555;59.622;16.556;2022-09-09T03:49:38;10.40;99.90
11005;DHT22;5555;59.622;16.556;2022-09-09T03:52:04;10.30;99.90
11005;DHT22;5555;59.622;16.556;2022-09-09T03:54:29;10.40;99.90
11005;DHT22;5555;59.622;16.556;2022-09-09T03:56:55;10.40;99.90
11005;DHT22;5555;59.622;16.556;2022-09-09T03:59:21;10.40;99.90
11005;DHT22;5555;59.622;16.556;2022-09-09T04:01:46;10.40;99.90
11005;DHT22;5555;59.622;16.556;2022-09-09T04:04:13;10.40;99.90
11005;DHT22;5555;59.622;16.556;2022-09-09T04:06:38;10.40;99.90
11005;DHT22;5555;59.622;16.556;2022-09-09T04:09:04;10.40;99.90
11005;DHT22;5555;59.622;16.556;2022-09-09T04:11:30;10.40;99.90
11005;DHT22;5555;59.622;16.556;2022-09-09T04:13:55;10.40;99.90
11005;DHT22;5555;59.622;16.556;2022-09-09T04:16:21;10.40;99.90
11005;DHT22;5555;59.622;16.556;2022-09-09T04:18:47;10.40;99.90
11005;DHT22;5555;59.622;16.556;2022-09-09T04:21:12;10.40;99.90
11005;DHT22;5555;59.622;16.556;2022-09-09T04:23:38;10.40;99.90
11005;DHT22;5555;59.622;16.556;2022-09-09T04:26:05;10.40;99.90
11005;DHT22;5555;59.622;16.556;2022-09-09T04:28:33;10.40;99.90
11005;DHT22;5555;59.622;16.556;2022-09-09T04:31:12;10.50;99.90
11005;DHT22;5555;59.622;16.556;2022-09-09T04:33:40;10.60;99.90
11005;DHT22;5555;59.622;16.556;2022-09-09T04:36:06;10.60;99.90
11005;DHT22;5555;59.622;16.556;2022-09-09T04:38:31;10.60;99.90
11005;DHT22;5555;59.622;16.556;2022-09-09T04:40:57;10.60;99.90
11005;DHT22;5555;59.622;16.556;2022-09-09T04:43:23;10.60;99.90
11005;DHT22;5555;59.622;16.556;2022-09-09T04:45:51;10.60;99.90
11005;DHT22;5555;59.622;16.556;2022-09-09T04:48:18;10.60;99.90
11005;DHT22;5555;59.622;16.556;2022-09-09T04:50:44;10.70;99.90
11005;DHT22;5555;59.622;16.556;2022-09-09T04:53:09;10.70;99.90
11005;DHT22;5555;59.622;16.556;2022-09-09T04:55:35;10.70;99.90
11005;DHT22;5555;59.622;16.556;2022-09-09T04:58:08;10.70;99.90
11005;DHT22;5555;59.622;16.556;2022-09-09T05:00:35;10.70;99.90
11005;DHT22;5555;59.622;16.556;2022-09-09T05:03:04;10.80;99.90
11005;DHT22;5555;59.622;16.556;2022-09-09T05:05:31;10.80;99.90
11005;DHT22;5555;59.622;16.556;2022-09-09T05:08:07;10.80;99.90
11005;DHT22;5555;59.622;16.556;2022-09-09T05:10:35;10.80;99.90
11005;DHT22;5555;59.622;16.556;2022-09-09T05:13:01;10.90;99.90
11005;DHT22;5555;59.622;16.556;2022-09-09T05:15:27;10.90;99.90
11005;DHT22;5555;59.622;16.556;2022-09-09T05:17:57;11.00;99.90
11005;DHT22;5555;59.622;16.556;2022-09-09T05:20:23;11.00;99.90
11005;DHT22;5555;59.622;16.556;2022-09-09T05:22:54;11.10;99.90
11005;DHT22;5555;59.622;16.556;2022-09-09T05:25:20;11.10;99.90
11005;DHT22;5555;59.622;16.556;2022-09-09T05:27:47;11.10;99.90
11005;DHT22;5555;59.622;16.556;2022-09-09T05:30:13;11.10;99.90
11005;DHT22;5555;59.622;16.556;2022-09-09T05:32:38;11.20;99.90
11005;DHT22;5555;59.622;16.556;2022-09-09T05:35:04;11.20;99.90
11005;DHT22;5555;59.622;16.556;2022-09-09T05:37:30;11.20;99.90
11005;DHT22;5555;59.622;16.556;2022-09-09T05:39:56;11.20;99.90
11005;DHT22;5555;59.622;16.556;2022-09-09T05:42:23;11.30;99.90
11005;DHT22;5555;59.622;16.556;2022-09-09T05:44:49;11.30;99.90
11005;DHT22;5555;59.622;16.556;2022-09-09T05:47:16;11.40;99.90
11005;DHT22;5555;59.622;16.556;2022-09-09T05:49:42;11.40;99.90
11005;DHT22;5555;59.622;16.556;2022-09-09T05:52:08;11.40;99.90
11005;DHT22;5555;59.622;16.556;2022-09-09T05:54:35;11.40;99.90
11005;DHT22;5555;59.622;16.556;2022-09-09T05:57:03;11.40;99.90
11005;DHT22;5555;59.622;16.556;2022-09-09T05:59:28;11.50;99.90
11005;DHT22;5555;59.622;16.556;2022-09-09T06:01:54;11.50;99.90
11005;DHT22;5555;59.622;16.556;2022-09-09T06:04:20;11.60;99.90
11005;DHT22;5555;59.622;16.556;2022-09-09T06:06:47;11.60;99.90
11005;DHT22;5555;59.622;16.556;2022-09-09T06:09:14;11.60;99.90
11005;DHT22;5555;59.622;16.556;2022-09-09T06:11:41;11.60;99.90
11005;DHT22;5555;59.622;16.556;2022-09-09T06:14:07;11.70;99.90
11005;DHT22;5555;59.622;16.556;2022-09-09T06:16:33;11.80;99.90
11005;DHT22;5555;59.622;16.556;2022-09-09T06:19:00;11.90;99.90
11005;DHT22;5555;59.622;16.556;2022-09-09T06:21:34;12.00;99.90
11005;DHT22;5555;59.622;16.556;2022-09-09T06:24:02;12.10;99.90
11005;DHT22;5555;59.622;16.556;2022-09-09T06:26:30;12.20;99.90
11005;DHT22;5555;59.622;16.556;2022-09-09T06:28:56;12.20;99.90
11005;DHT22;5555;59.622;16.556;2022-09-09T06:31:25;12.20;99.90
11005;DHT22;5555;59.622;16.556;2022-09-09T06:33:53;12.30;99.90
11005;DHT22;5555;59.622;16.556;2022-09-09T06:36:30;12.40;99.90
11005;DHT22;5555;59.622;16.556;2022-09-09T06:38:56;12.40;99.90
11005;DHT22;5555;59.622;16.556;2022-09-09T06:41:24;12.50;99.90
11005;DHT22;5555;59.622;16.556;2022-09-09T06:43:51;12.50;99.90
11005;DHT22;5555;59.622;16.556;2022-09-09T06:46:28;12.60;99.90
11005;DHT22;5555;59.622;16.556;2022-09-09T06:48:54;12.80;99.90
11005;DHT22;5555;59.622;16.556;2022-09-09T06:51:28;12.70;99.90
11005;DHT22;5555;59.622;16.556;2022-09-09T06:53:56;12.80;99.90
11005;DHT22;5555;59.622;16.556;2022-09-09T06:56:43;12.90;99.90
11005;DHT22;5555;59.622;16.556;2022-09-09T06:59:09;13.00;99.90
11005;DHT22;5555;59.622;16.556;2022-09-09T07:01:40;13.20;99.90
11005;DHT22;5555;59.622;16.556;2022-09-09T07:04:06;13.20;99.90
11005;DHT22;5555;59.622;16.556;2022-09-09T07:06:41;13.20;99.90
11005;DHT22;5555;59.622;16.556;2022-09-09T07:09:10;13.30;99.90
11005;DHT22;5555;59.622;16.556;2022-09-09T07:11:41;13.50;99.90
11005;DHT22;5555;59.622;16.556;2022-09-09T07:14:08;13.60;99.90
11005;DHT22;5555;59.622;16.556;2022-09-09T07:16:34;13.70;99.90
11005;DHT22;5555;59.622;16.556;2022-09-09T07:19:03;13.80;99.90
11005;DHT22;5555;59.622;16.556;2022-09-09T07:21:29;13.90;99.90
11005;DHT22;5555;59.622;16.556;2022-09-09T07:23:56;14.00;99.90
11005;DHT22;5555;59.622;16.556;2022-09-09T07:26:26;14.10;99.90
11005;DHT22;5555;59.622;16.556;2022-09-09T07:28:53;14.20;99.90
11005;DHT22;5555;59.622;16.556;2022-09-09T07:31:21;14.30;99.90
11005;DHT22;5555;59.622;16.556;2022-09-09T07:33:47;14.20;99.90
11005;DHT22;5555;59.622;16.556;2022-09-09T07:36:22;14.30;99.90
11005;DHT22;5555;59.622;16.556;2022-09-09T07:38:53;14.40;99.90
11005;DHT22;5555;59.622;16.556;2022-09-09T07:41:28;14.50;99.90
11005;DHT22;5555;59.622;16.556;2022-09-09T07:43:55;14.50;99.90
11005;DHT22;5555;59.622;16.556;2022-09-09T07:46:23;14.60;99.90
11005;DHT22;5555;59.622;16.556;2022-09-09T07:48:52;14.70;99.90
11005;DHT22;5555;59.622;16.556;2022-09-09T07:51:21;14.90;99.90
11005;DHT22;5555;59.622;16.556;2022-09-09T07:53:48;14.80;99.90
11005;DHT22;5555;59.622;16.556;2022-09-09T07:56:16;14.80;99.90
11005;DHT22;5555;59.622;16.556;2022-09-09T07:58:47;15.00;99.90
11005;DHT22;5555;59.622;16.556;2022-09-09T08:01:16;15.10;99.90
11005;DHT22;5555;59.622;16.556;2022-09-09T08:03:44;15.20;99.90
11005;DHT22;5555;59.622;16.556;2022-09-09T08:06:10;15.20;99.90
11005;DHT22;5555;59.622;16.556;2022-09-09T08:08:38;15.10;99.90
11005;DHT22;5555;59.622;16.556;2022-09-09T08:11:11;15.00;99.90
11005;DHT22;5555;59.622;16.556;2022-09-09T08:13:38;14.70;99.90
11005;DHT22;5555;59.622;16.556;2022-09-09T08:16:18;14.60;99.90
11005;DHT22;5555;59.622;16.556;2022-09-09T08:18:44;14.50;99.90
11005;DHT22;5555;59.622;16.556;2022-09-09T08:21:15;14.60;99.90
11005;DHT22;5555;59.622;16.556;2022-09-09T08:23:44;14.60;99.90
11005;DHT22;5555;59.622;16.556;2022-09-09T08:26:19;14.80;99.90
11005;DHT22;5555;59.622;16.556;2022-09-09T08:28:49;15.20;99.90
11005;DHT22;5555;59.622;16.556;2022-09-09T08:31:25;15.30;99.90
11005;DHT22;5555;59.622;16.556;2022-09-09T08:33:53;15.40;99.90
11005;DHT22;5555;59.622;16.556;2022-09-09T08:36:21;15.40;99.90
11005;DHT22;5555;59.622;16.556;2022-09-09T08:38:52;15.40;99.90
11005;DHT22;5555;59.622;16.556;2022-09-09T08:52:31;15.80;99.90
11005;DHT22;5555;59.622;16.556;2022-09-09T08:57:44;15.90;99.90
11005;DHT22;5555;59.622;16.556;2022-09-09T09:00:12;16.00;99.90
11005;DHT22;5555;59.622;16.556;2022-09-09T09:11:21;16.70;99.90
11005;DHT22;5555;59.622;16.556;2022-09-09T09:14:01;16.30;99.90
11005;DHT22;5555;59.622;16.556;2022-09-09T09:19:03;16.10;99.90
11005;DHT22;5555;59.622;16.556;2022-09-09T09:21:39;16.10;99.90
11005;DHT22;5555;59.622;16.556;2022-09-09T09:24:27;16.30;99.90
11005;DHT22;5555;59.622;16.556;2022-09-09T09:27:00;16.40;99.90
11005;DHT22;5555;59.622;16.556;2022-09-09T09:29:32;17.00;99.90
11005;DHT22;5555;59.622;16.556;2022-09-09T09:32:01;17.70;99.90
11005;DHT22;5555;59.622;16.556;2022-09-09T09:34:27;17.80;99.90
11005;DHT22;5555;59.622;16.556;2022-09-09T09:36:58;17.60;99.90
11005;DHT22;5555;59.622;16.556;2022-09-09T09:39:31;17.60;99.90
11005;DHT22;5555;59.622;16.556;2022-09-09T09:42:12;17.20;99.90
11005;DHT22;5555;59.622;16.556;2022-09-09T09:44:41;17.30;99.90
11005;DHT22;5555;59.622;16.556;2022-09-09T09:47:19;17.30;99.90
11005;DHT22;5555;59.622;16.556;2022-09-09T09:49:55;17.10;99.90
11005;DHT22;5555;59.622;16.556;2022-09-09T09:52:31;17.30;99.90
11005;DHT22;5555;59.622;16.556;2022-09-09T09:54:58;17.80;99.90
11005;DHT22;5555;59.622;16.556;2022-09-09T09:57:29;17.60;99.90
11005;DHT22;5555;59.622;16.556;2022-09-09T10:00:15;16.90;99.90
11005;DHT22;5555;59.622;16.556;2022-09-09T10:02:44;16.70;99.90
11005;DHT22;5555;59.622;16.556;2022-09-09T10:05:17;16.90;99.90
11005;DHT22;5555;59.622;16.556;2022-09-09T10:07:44;17.30;99.90
11005;DHT22;5555;59.622;16.556;2022-09-09T10:10:24;17.10;99.90
11005;DHT22;5555;59.622;16.556;2022-09-09T10:19:15;17.10;99.90
11005;DHT22;5555;59.622;16.556;2022-09-09T10:24:57;16.90;99.90
11005;DHT22;5555;59.622;16.556;2022-09-09T10:35:53;16.40;99.90
11005;DHT22;5555;59.622;16.556;2022-09-09T10:38:41;16.70;99.90
11005;DHT22;5555;59.622;16.556;2022-09-09T10:44:21;16.60;99.90
11005;DHT22;5555;59.622;16.556;2022-09-09T10:47:24;16.70;99.90
11005;DHT22;5555;59.622;16.556;2022-09-09T10:55:17;17.80;99.90
11005;DHT22;5555;59.622;16.556;2022-09-09T10:57:44;18.00;99.90
11005;DHT22;5555;59.622;16.556;2022-09-09T11:00:18;18.30;99.90
11005;DHT22;5555;59.622;16.556;2022-09-09T11:03:09;17.80;99.90
11005;DHT22;5555;59.622;16.556;2022-09-09T11:05:41;17.50;99.90
11005;DHT22;5555;59.622;16.556;2022-09-09T11:08:16;17.20;99.90
11005;DHT22;5555;59.622;16.556;2022-09-09T11:16:58;17.80;99.90
11005;DHT22;5555;59.622;16.556;2022-09-09T11:19:39;17.80;99.90
11005;DHT22;5555;59.622;16.556;2022-09-09T11:25:16;18.00;99.90
11005;DHT22;5555;59.622;16.556;2022-09-09T11:33:51;18.00;99.90
11005;DHT22;5555;59.622;16.556;2022-09-09T11:36:43;17.70;99.90
11005;DHT22;5555;59.622;16.556;2022-09-09T11:44:37;18.60;99.90
11005;DHT22;5555;59.622;16.556;2022-09-09T11:47:03;18.80;99.90
11005;DHT22;5555;59.622;16.556;2022-09-09T11:49:40;19.20;99.90
11005;DHT22;5555;59.622;16.556;2022-09-09T11:52:21;19.50;99.90
11005;DHT22;5555;59.622;16.556;2022-09-09T11:54:49;19.60;99.90
11005;DHT22;5555;59.622;16.556;2022-09-09T11:57:25;19.60;99.90
11005;DHT22;5555;59.622;16.556;2022-09-09T11:59:52;19.70;99.90
11005;DHT22;5555;59.622;16.556;2022-09-09T12:02:25;19.50;99.90
11005;DHT22;5555;59.622;16.556;2022-09-09T12:05:02;20.30;99.90
11005;DHT22;5555;59.622;16.556;2022-09-09T12:07:58;20.00;99.90
11005;DHT22;5555;59.622;16.556;2022-09-09T12:10:30;20.60;99.90
11005;DHT22;5555;59.622;16.556;2022-09-09T12:13:18;20.90;99.90
11005;DHT22;5555;59.622;16.556;2022-09-09T12:15:58;20.30;99.90
11005;DHT22;5555;59.622;16.556;2022-09-09T12:18:35;21.00;99.30
11005;DHT22;5555;59.622;16.556;2022-09-09T12:21:07;19.70;98.70
11005;DHT22;5555;59.622;16.556;2022-09-09T12:26:43;19.60;99.90
11005;DHT22;5555;59.622;16.556;2022-09-09T12:29:28;20.00;99.50
11005;DHT22;5555;59.622;16.556;2022-09-09T12:32:11;20.40;99.20
11005;DHT22;5555;59.622;16.556;2022-09-09T12:39:58;21.70;98.20
11005;DHT22;5555;59.622;16.556;2022-09-09T12:42:26;22.00;97.10
11005;DHT22;5555;59.622;16.556;2022-09-09T12:45:00;21.40;97.60
11005;DHT22;5555;59.622;16.556;2022-09-09T12:47:40;21.40;98.00
11005;DHT22;5555;59.622;16.556;2022-09-09T12:50:57;21.00;97.70
11005;DHT22;5555;59.622;16.556;2022-09-09T12:53:24;21.00;98.40
11005;DHT22;5555;59.622;16.556;2022-09-09T12:56:06;21.10;97.30
11005;DHT22;5555;59.622;16.556;2022-09-09T12:58:35;21.60;96.40
11005;DHT22;5555;59.622;16.556;2022-09-09T13:01:03;21.30;98.10
11005;DHT22;5555;59.622;16.556;2022-09-09T13:03:31;20.90;97.30
11005;DHT22;5555;59.622;16.556;2022-09-09T13:06:10;21.10;96.80
11005;DHT22;5555;59.622;16.556;2022-09-09T13:08:37;20.30;97.40
11005;DHT22;5555;59.622;16.556;2022-09-09T13:11:08;19.70;97.40
11005;DHT22;5555;59.622;16.556;2022-09-09T13:13:38;20.60;96.30
11005;DHT22;5555;59.622;16.556;2022-09-09T13:16:05;21.70;96.60
11005;DHT22;5555;59.622;16.556;2022-09-09T13:18:40;21.40;96.20
11005;DHT22;5555;59.622;16.556;2022-09-09T13:21:07;21.10;95.60
11005;DHT22;5555;59.622;16.556;2022-09-09T13:23:35;21.80;97.80
11005;DHT22;5555;59.622;16.556;2022-09-09T13:26:24;21.80;96.50
11005;DHT22;5555;59.622;16.556;2022-09-09T13:28:49;21.60;96.00
11005;DHT22;5555;59.622;16.556;2022-09-09T13:31:44;21.30;96.80
11005;DHT22;5555;59.622;16.556;2022-09-09T13:34:26;21.50;96.40
11005;DHT22;5555;59.622;16.556;2022-09-09T13:36:56;21.90;96.80
11005;DHT22;5555;59.622;16.556;2022-09-09T13:39:23;22.10;95.20
11005;DHT22;5555;59.622;16.556;2022-09-09T13:41:49;21.90;96.20
11005;DHT22;5555;59.622;16.556;2022-09-09T13:44:29;22.00;94.10
11005;DHT22;5555;59.622;16.556;2022-09-09T13:49:51;22.40;94.20
11005;DHT22;5555;59.622;16.556;2022-09-09T13:52:18;22.40;93.80
11005;DHT22;5555;59.622;16.556;2022-09-09T13:54:51;22.40;94.90
11005;DHT22;5555;59.622;16.556;2022-09-09T13:57:19;22.60;94.10
11005;DHT22;5555;59.622;16.556;2022-09-09T13:59:46;22.50;93.60
11005;DHT22;5555;59.622;16.556;2022-09-09T14:02:13;21.60;94.80
11005;DHT22;5555;59.622;16.556;2022-09-09T14:04:38;19.70;95.50
11005;DHT22;5555;59.622;16.556;2022-09-09T14:07:10;18.40;97.20
11005;DHT22;5555;59.622;16.556;2022-09-09T14:09:36;17.70;99.00
11005;DHT22;5555;59.622;16.556;2022-09-09T14:12:02;17.80;99.60
11005;DHT22;5555;59.622;16.556;2022-09-09T14:14:28;18.60;99.90
11005;DHT22;5555;59.622;16.556;2022-09-09T14:16:54;18.80;99.30
11005;DHT22;5555;59.622;16.556;2022-09-09T14:19:20;18.70;99.60
11005;DHT22;5555;59.622;16.556;2022-09-09T14:21:45;18.50;99.10
11005;DHT22;5555;59.622;16.556;2022-09-09T14:24:11;19.60;99.70
11005;DHT22;5555;59.622;16.556;2022-09-09T14:26:37;21.00;99.00
11005;DHT22;5555;59.622;16.556;2022-09-09T14:29:03;20.80;97.80
11005;DHT22;5555;59.622;16.556;2022-09-09T14:31:29;20.70;97.70
11005;DHT22;5555;59.622;16.556;2022-09-09T14:33:55;20.10;98.90
11005;DHT22;5555;59.622;16.556;2022-09-09T14:36:21;19.90;98.90
11005;DHT22;5555;59.622;16.556;2022-09-09T14:38:47;19.60;98.50
11005;DHT22;5555;59.622;16.556;2022-09-09T14:41:15;19.50;99.10
11005;DHT22;5555;59.622;16.556;2022-09-09T14:43:45;19.30;99.00
11005;DHT22;5555;59.622;16.556;2022-09-09T14:46:13;19.20;99.80
11005;DHT22;5555;59.622;16.556;2022-09-09T14:48:40;18.30;99.90
11005;DHT22;5555;59.622;16.556;2022-09-09T14:51:11;18.30;99.90
11005;DHT22;5555;59.622;16.556;2022-09-09T14:53:39;18.90;99.90
11005;DHT22;5555;59.622;16.556;2022-09-09T14:56:10;19.70;99.90
11005;DHT22;5555;59.622;16.556;2022-09-09T14:58:36;20.80;99.20
11005;DHT22;5555;59.622;16.556;2022-09-09T15:01:08;21.80;98.10
11005;DHT22;5555;59.622;16.556;2022-09-09T15:03:41;20.60;98.80
11005;DHT22;5555;59.622;16.556;2022-09-09T15:06:09;20.90;98.80
11005;DHT22;5555;59.622;16.556;2022-09-09T15:08:36;22.00;98.40
11005;DHT22;5555;59.622;16.556;2022-09-09T15:11:03;21.20;98.50
11005;DHT22;5555;59.622;16.556;2022-09-09T15:13:29;20.30;99.60
11005;DHT22;5555;59.622;16.556;2022-09-09T15:15:55;19.20;99.90
11005;DHT22;5555;59.622;16.556;2022-09-09T15:18:21;18.60;99.90
11005;DHT22;5555;59.622;16.556;2022-09-09T15:20:47;18.20;99.90
11005;DHT22;5555;59.622;16.556;2022-09-09T15:23:13;18.30;99.90
11005;DHT22;5555;59.622;16.556;2022-09-09T15:25:51;19.30;99.90
11005;DHT22;5555;59.622;16.556;2022-09-09T15:28:17;19.50;99.90
11005;DHT22;5555;59.622;16.556;2022-09-09T15:30:43;19.70;99.90
11005;DHT22;5555;59.622;16.556;2022-09-09T15:33:10;19.30;99.90
11005;DHT22;5555;59.622;16.556;2022-09-09T15:35:36;19.60;99.90
11005;DHT22;5555;59.622;16.556;2022-09-09T15:38:02;19.10;99.90
11005;DHT22;5555;59.622;16.556;2022-09-09T15:40:30;18.60;99.90
11005;DHT22;5555;59.622;16.556;2022-09-09T15:42:58;18.50;99.90
11005;DHT22;5555;59.622;16.556;2022-09-09T15:45:23;17.90;99.90
11005;DHT22;5555;59.622;16.556;2022-09-09T15:47:49;18.20;99.90
11005;DHT22;5555;59.622;16.556;2022-09-09T15:50:15;19.50;99.90
11005;DHT22;5555;59.622;16.556;2022-09-09T15:52:40;19.90;99.90
11005;DHT22;5555;59.622;16.556;2022-09-09T15:55:07;20.70;99.90
11005;DHT22;5555;59.622;16.556;2022-09-09T15:57:35;21.50;99.30
11005;DHT22;5555;59.622;16.556;2022-09-09T16:00:04;21.50;98.80
11005;DHT22;5555;59.622;16.556;2022-09-09T16:02:31;21.60;99.00
11005;DHT22;5555;59.622;16.556;2022-09-09T16:04:57;22.20;98.20
11005;DHT22;5555;59.622;16.556;2022-09-09T16:07:23;22.50;98.00
11005;DHT22;5555;59.622;16.556;2022-09-09T16:09:48;22.70;97.70
11005;DHT22;5555;59.622;16.556;2022-09-09T16:12:17;22.90;97.40
11005;DHT22;5555;59.622;16.556;2022-09-09T16:14:42;23.30;96.20
11005;DHT22;5555;59.622;16.556;2022-09-09T16:17:08;21.20;97.00
11005;DHT22;5555;59.622;16.556;2022-09-09T16:19:34;21.50;98.50
11005;DHT22;5555;59.622;16.556;2022-09-09T16:22:00;21.10;98.40
11005;DHT22;5555;59.622;16.556;2022-09-09T16:24:26;21.20;99.00
11005;DHT22;5555;59.622;16.556;2022-09-09T16:26:53;21.00;98.70
11005;DHT22;5555;59.622;16.556;2022-09-09T16:29:20;21.20;98.30
11005;DHT22;5555;59.622;16.556;2022-09-09T16:31:47;21.00;98.70
11005;DHT22;5555;59.622;16.556;2022-09-09T16:34:14;20.80;98.70
11005;DHT22;5555;59.622;16.556;2022-09-09T16:36:41;20.50;99.00
11005;DHT22;5555;59.622;16.556;2022-09-09T16:39:12;20.20;99.40
11005;DHT22;5555;59.622;16.556;2022-09-09T16:41:39;20.70;99.20
11005;DHT22;5555;59.622;16.556;2022-09-09T16:44:07;20.90;99.10
11005;DHT22;5555;59.622;16.556;2022-09-09T16:46:35;20.60;99.00
11005;DHT22;5555;59.622;16.556;2022-09-09T16:49:03;19.90;99.90
11005;DHT22;5555;59.622;16.556;2022-09-09T16:51:32;19.40;99.90
11005;DHT22;5555;59.622;16.556;2022-09-09T16:53:59;18.60;99.90
11005;DHT22;5555;59.622;16.556;2022-09-09T16:56:27;17.70;99.90
11005;DHT22;5555;59.622;16.556;2022-09-09T16:58:57;16.70;99.90
11005;DHT22;5555;59.622;16.556;2022-09-09T17:01:30;16.20;99.90
11005;DHT22;5555;59.622;16.556;2022-09-09T17:03:58;15.80;99.90
11005;DHT22;5555;59.622;16.556;2022-09-09T17:06:26;15.30;99.90
11005;DHT22;5555;59.622;16.556;2022-09-09T17:08:56;15.10;99.90
11005;DHT22;5555;59.622;16.556;2022-09-09T17:11:22;15.10;99.90
11005;DHT22;5555;59.622;16.556;2022-09-09T17:13:49;15.00;99.90
11005;DHT22;5555;59.622;16.556;2022-09-09T17:16:17;14.80;99.90
11005;DHT22;5555;59.622;16.556;2022-09-09T17:18:43;14.60;99.90
11005;DHT22;5555;59.622;16.556;2022-09-09T17:21:15;14.40;99.90
11005;DHT22;5555;59.622;16.556;2022-09-09T17:23:41;14.20;99.90
11005;DHT22;5555;59.622;16.556;2022-09-09T17:26:09;14.10;99.90
11005;DHT22;5555;59.622;16.556;2022-09-09T17:28:39;14.00;99.90
11005;DHT22;5555;59.622;16.556;2022-09-09T17:31:06;13.90;99.90
11005;DHT22;5555;59.622;16.556;2022-09-09T17:33:37;13.80;99.90
11005;DHT22;5555;59.622;16.556;2022-09-09T17:36:19;13.70;99.90
11005;DHT22;5555;59.622;16.556;2022-09-09T17:38:45;13.50;99.90
11005;DHT22;5555;59.622;16.556;2022-09-09T17:41:17;13.40;99.90
11005;DHT22;5555;59.622;16.556;2022-09-09T17:43:44;13.30;99.90
11005;DHT22;5555;59.622;16.556;2022-09-09T17:46:13;13.20;99.90
11005;DHT22;5555;59.622;16.556;2022-09-09T17:48:40;13.10;99.90
11005;DHT22;5555;59.622;16.556;2022-09-09T17:51:14;13.00;99.90
11005;DHT22;5555;59.622;16.556;2022-09-09T17:53:46;12.90;99.90